Time;durP1;ratioP1;P1;durP2;ratioP2;P2;SDS_P1;SDS_P2;PMS_P1;PMS_P2;Temp;Humidity;BMP_temperature;BMP_pressure;BME280_temperature;BME280_humidity;BME280_pressure;Samples;Min_cycle;Max_cycle;Signal;HPM_P1;HPM_P2
2022/06/01 00:01:52;;;;;;;;;16.25;15.75;;;;;17.68;61.03;100001.44;5056905;28;46282;-72
2022/06/01 00:04:19;;;;;;;;;13.75;13.00;;;;;17.54;61.24;99985.69;5056905;28;45587;-71
2022/06/01 00:06:45;;;;;;;;;15.25;14.50;;;;;17.37;61.65;99979.66;5057184;28;45450;-72
2022/06/01 00:09:11;;;;;;;;;12.75;12.50;;;;;17.40;61.99;99983.16;5056878;28;45501;-71
2022/06/01 00:11:37;;;;;;;;;16.25;15.25;;;;;17.38;62.16;99982.28;5055992;28;45961;-71
2022/06/01 00:14:03;;;;;;;;;16.50;14.25;;;;;17.38;62.45;99981.41;5056849;28;45400;-72
2022/06/01 00:16:28;;;;;;;;;14.25;13.25;;;;;17.37;62.09;99984.94;5047166;28;46035;-70
2022/06/01 00:18:54;;;;;;;;;11.50;11.25;;;;;17.28;62.18;99976.19;5047199;28;45428;-71
2022/06/01 00:21:19;;;;;;;;;16.75;13.75;;;;;17.21;62.71;99970.97;5044798;28;45551;-71
2022/06/01 00:23:45;;;;;;;;;11.50;11.50;;;;;17.27;62.25;99990.28;5046245;28;45434;-71
2022/06/01 00:26:11;;;;;;;;;12.00;11.75;;;;;17.19;62.19;99980.66;5046396;28;45560;-70
2022/06/01 00:28:36;;;;;;;;;11.50;11.00;;;;;17.16;62.33;99978.91;5044895;28;45526;-70
2022/06/01 00:31:03;;;;;;;;;10.25;9.50;;;;;17.16;62.64;99980.69;5046147;28;45502;-70
2022/06/01 00:33:30;;;;;;;;;12.50;11.75;;;;;17.05;63.01;99962.25;5045957;28;45637;-70
2022/06/01 00:35:55;;;;;;;;;13.25;13.00;;;;;17.14;63.19;99971.91;5044443;28;45619;-71
2022/06/01 00:38:21;;;;;;;;;13.25;12.25;;;;;17.05;63.43;99965.78;5046528;28;45510;-71
2022/06/01 00:40:48;;;;;;;;;11.00;11.00;;;;;17.07;63.23;99966.66;5045919;28;45466;-71
2022/06/01 00:43:26;;;;;;;;;11.75;11.75;;;;;17.05;63.49;99964.91;5044922;28;45430;-71
2022/06/01 00:45:52;;;;;;;;;11.75;11.25;;;;;17.03;63.44;99961.38;5045033;28;45410;-71
2022/06/01 00:48:22;;;;;;;;;10.50;9.50;;;;;17.03;63.33;99964.03;5044918;28;45493;-71
2022/06/01 00:50:48;;;;;;;;;10.00;9.00;;;;;16.87;63.34;99950.03;5037903;28;45496;-71
2022/06/01 00:53:18;;;;;;;;;9.75;9.25;;;;;16.84;63.11;99958.00;5036522;28;45306;-71
2022/06/01 00:55:50;;;;;;;;;9.00;9.00;;;;;16.73;63.24;99950.06;5036462;28;45461;-71
2022/06/01 00:58:43;;;;;;;;;9.25;8.50;;;;;16.86;63.67;99979.97;5036797;28;45254;-71
2022/06/01 01:01:15;;;;;;;;;7.50;7.50;;;;;16.83;63.53;99975.59;5035024;28;46185;-71
2022/06/01 01:03:43;;;;;;;;;8.00;7.50;;;;;16.81;63.70;99987.91;5036060;28;45529;-71
2022/06/01 01:06:18;;;;;;;;;7.00;7.00;;;;;16.77;63.82;99988.78;5036242;28;45415;-71
2022/06/01 01:08:47;;;;;;;;;8.00;7.50;;;;;16.70;63.84;99974.72;5036955;28;45625;-71
2022/06/01 01:11:14;;;;;;;;;8.50;8.00;;;;;16.57;64.31;99958.94;5039198;28;46235;-71
2022/06/01 01:13:45;;;;;;;;;9.00;9.00;;;;;16.61;64.48;99982.69;5039402;28;45537;-71
2022/06/01 01:16:12;;;;;;;;;10.00;9.00;;;;;16.57;64.59;99980.91;5039310;28;45565;-71
2022/06/01 01:18:43;;;;;;;;;8.50;8.00;;;;;16.49;64.65;99967.78;5039633;28;45477;-71
2022/06/01 01:21:26;;;;;;;;;8.00;7.50;;;;;16.47;64.54;99977.47;5039223;28;45416;-71
2022/06/01 01:24:15;;;;;;;;;8.00;7.75;;;;;16.52;64.41;99976.56;5039247;28;45466;-71
2022/06/01 01:26:47;;;;;;;;;8.75;8.75;;;;;16.37;64.84;99962.53;5039324;28;45393;-71
2022/06/01 01:29:14;;;;;;;;;8.00;8.00;;;;;16.36;64.65;99959.91;5039390;28;45518;-71
2022/06/01 01:31:39;;;;;;;;;7.00;6.75;;;;;16.40;64.82;99972.22;5039072;28;46038;-72
2022/06/01 01:34:05;;;;;;;;;9.25;8.00;;;;;16.35;64.88;99963.41;5038778;28;45520;-71
2022/06/01 01:36:38;;;;;;;;;10.75;10.00;;;;;16.24;65.27;99952.91;5039341;28;45554;-72
2022/06/01 01:39:14;;;;;;;;;10.25;8.50;;;;;16.30;65.34;99976.63;5039168;28;45406;-71
2022/06/01 01:41:46;;;;;;;;;12.00;11.00;;;;;16.26;65.82;99981.00;5038733;28;46166;-73
2022/06/01 01:44:14;;;;;;;;;10.25;10.25;;;;;16.18;65.65;99974.88;5038713;28;45398;-71
2022/06/01 01:46:40;;;;;;;;;8.25;8.25;;;;;16.14;66.11;99969.63;5038947;28;46330;-71
2022/06/01 01:49:05;;;;;;;;;10.00;10.00;;;;;16.05;65.78;99954.69;5039135;28;45358;-72
2022/06/01 01:51:32;;;;;;;;;9.00;9.00;;;;;16.15;66.08;99974.00;5038811;28;45986;-70
2022/06/01 01:54:02;;;;;;;;;10.00;10.00;;;;;16.09;66.31;99975.78;5038664;28;45520;-71
2022/06/01 01:57:05;;;;;;;;;10.00;9.00;;;;;16.07;66.56;99980.16;5038638;28;46712;-71
2022/06/01 02:00:06;;;;;;;;;8.00;8.00;;;;;16.04;66.50;99985.44;5038965;28;45466;-72
2022/06/01 02:02:42;;;;;;;;;11.25;10.00;;;;;16.02;66.75;99979.31;5030802;28;46220;-71
2022/06/01 02:08:13;;;;;;;;;8.00;8.00;;;;;15.89;66.29;99959.13;5038680;28;45381;-71
2022/06/01 02:13:24;;;;;;;;;9.00;8.75;;;;;15.89;66.52;99970.53;5038211;28;45490;-71
2022/06/01 02:15:52;;;;;;;;;10.25;10.25;;;;;15.88;66.90;99973.19;5038398;28;45556;-71
2022/06/01 02:18:29;;;;;;;;;9.50;9.00;;;;;15.90;66.96;99976.69;5038711;28;45777;-72
2022/06/01 02:21:01;;;;;;;;;9.00;9.00;;;;;15.74;66.96;99954.75;5038292;28;45467;-71
2022/06/01 02:23:31;;;;;;;;;9.25;8.25;;;;;15.81;66.89;99964.38;5038252;28;46053;-72
2022/06/01 02:25:59;;;;;;;;;9.25;7.75;;;;;15.76;66.90;99963.53;5038191;28;45332;-71
2022/06/01 02:28:25;;;;;;;;;8.50;7.75;;;;;15.73;67.16;99965.28;5038302;28;45402;-71
2022/06/01 02:30:52;;;;;;;;;7.25;6.75;;;;;15.73;67.23;99974.06;5037291;28;45513;-71
2022/06/01 02:33:25;;;;;;;;;8.00;7.00;;;;;15.73;67.26;99971.41;5038026;28;46313;-71
2022/06/01 02:35:58;;;;;;;;;9.00;8.00;;;;;15.68;67.27;99962.63;5053686;28;45505;-71
2022/06/01 02:38:39;;;;;;;;;9.50;9.00;;;;;15.58;67.08;99952.94;5037082;28;45489;-71
2022/06/01 02:41:06;;;;;;;;;9.00;8.50;;;;;15.57;67.47;99961.75;5038262;28;45403;-71
2022/06/01 02:43:31;;;;;;;;;8.00;8.00;;;;;15.63;67.43;99972.28;5037845;28;46143;-71
2022/06/01 02:45:57;;;;;;;;;8.25;7.75;;;;;15.50;67.25;99953.84;5037698;28;45530;-70
2022/06/01 02:48:23;;;;;;;;;8.00;8.00;;;;;15.59;67.73;99971.38;5038510;28;45458;-70
2022/06/01 02:50:48;;;;;;;;;7.25;7.00;;;;;15.57;67.01;99978.41;5038275;28;45426;-71
2022/06/01 02:53:14;;;;;;;;;8.00;7.25;;;;;15.46;67.27;99967.88;5037876;28;45466;-70
2022/06/01 02:55:39;;;;;;;;;8.00;8.00;;;;;15.54;67.63;99988.94;5037988;28;45471;-71
2022/06/01 02:58:05;;;;;;;;;8.00;8.00;;;;;15.50;67.50;99979.28;5038084;28;45364;-70
2022/06/01 03:00:37;;;;;;;;;8.00;7.50;;;;;15.46;67.58;99982.81;5038186;28;45486;-71
2022/06/01 03:03:05;;;;;;;;;8.50;7.25;;;;;15.43;67.86;99985.41;5037402;28;45967;-71
2022/06/01 03:05:35;;;;;;;;;10.00;10.00;;;;;15.42;67.66;99986.28;5037334;28;45518;-71
2022/06/01 03:08:01;;;;;;;;;8.00;8.00;;;;;15.39;67.83;99988.94;5037577;28;45354;-71
2022/06/01 03:10:28;;;;;;;;;8.50;8.50;;;;;15.30;68.01;99988.03;5038053;28;45414;-71
2022/06/01 03:12:55;;;;;;;;;8.00;7.50;;;;;15.23;68.75;99999.41;5053172;28;47150;-71
2022/06/01 03:15:22;;;;;;;;;9.00;8.50;;;;;15.22;68.73;99997.69;5037440;28;45449;-71
2022/06/01 03:17:48;;;;;;;;;8.75;8.50;;;;;15.21;68.84;100001.16;5037526;28;45340;-71
2022/06/01 03:20:18;;;;;;;;;8.50;7.50;;;;;15.21;69.18;100000.28;5037466;28;45540;-71
2022/06/01 03:22:44;;;;;;;;;7.75;7.50;;;;;15.15;68.66;100006.41;5037241;28;46053;-71
2022/06/01 03:25:14;;;;;;;;;7.25;6.50;;;;;14.99;67.46;99978.31;5037332;28;45362;-71
2022/06/01 03:27:40;;;;;;;;;9.00;8.00;;;;;15.05;68.89;99999.38;5037416;28;45421;-71
2022/06/01 03:30:10;;;;;;;;;11.50;8.25;;;;;15.02;69.18;99999.34;5037647;28;45233;-72
2022/06/01 03:32:35;;;;;;;;;8.00;7.50;;;;;15.01;69.45;99994.97;5036449;28;45486;-71
2022/06/01 03:35:01;;;;;;;;;8.00;8.00;;;;;14.99;69.19;99989.72;5037392;28;45359;-71
2022/06/01 03:37:27;;;;;;;;;8.00;8.00;;;;;14.99;69.45;99991.47;5037624;28;45394;-72
2022/06/01 03:39:53;;;;;;;;;8.00;7.50;;;;;15.00;69.18;99995.84;5036320;28;45451;-72
2022/06/01 03:42:18;;;;;;;;;7.00;7.00;;;;;15.03;69.71;99998.50;5036827;28;46312;-71
2022/06/01 03:47:28;;;;;;;;;6.50;6.00;;;;;15.06;69.03;99998.50;5037565;28;46295;-70
2022/06/01 03:49:54;;;;;;;;;10.00;9.75;;;;;15.06;69.33;100001.13;5037306;28;45376;-70
2022/06/01 03:52:19;;;;;;;;;8.75;8.25;;;;;14.93;69.23;99981.81;5036797;28;45455;-72
2022/06/01 03:54:45;;;;;;;;;8.00;8.00;;;;;15.02;69.21;100000.25;5036636;28;45585;-72
2022/06/01 03:57:12;;;;;;;;;8.00;8.00;;;;;15.01;68.86;100002.88;5036853;28;45304;-71
2022/06/01 03:59:38;;;;;;;;;7.00;7.00;;;;;14.98;68.57;100005.47;5037596;28;45464;-71
2022/06/01 04:02:05;;;;;;;;;9.75;9.25;;;;;14.82;68.90;99981.78;5036649;28;45366;-71
2022/06/01 04:04:32;;;;;;;;;8.75;8.00;;;;;14.91;69.31;100005.47;5037003;28;45454;-71
2022/06/01 04:06:58;;;;;;;;;10.00;8.50;;;;;14.91;69.66;100000.19;5037241;28;45376;-71
2022/06/01 04:09:24;;;;;;;;;9.75;9.25;;;;;14.89;69.28;99995.81;5036960;28;45576;-71
2022/06/01 04:11:51;;;;;;;;;8.50;8.00;;;;;14.89;69.66;99999.31;5036706;28;45442;-72
2022/06/01 04:14:20;;;;;;;;;9.50;9.00;;;;;14.88;69.26;99992.31;5036783;28;45451;-71
2022/06/01 04:16:46;;;;;;;;;7.50;7.50;;;;;14.85;69.85;99994.91;5036708;28;45482;-71
2022/06/01 04:19:12;;;;;;;;;9.50;9.00;;;;;14.83;69.54;100004.56;5035725;28;45500;-71
2022/06/01 04:21:41;;;;;;;;;9.25;7.75;;;;;14.85;69.93;100008.06;5036560;28;45975;-71
2022/06/01 04:24:12;;;;;;;;;9.50;7.75;;;;;14.86;69.94;100001.94;5036540;28;45469;-72
2022/06/01 04:26:38;;;;;;;;;9.50;8.00;;;;;14.84;69.38;100000.16;5036688;28;45479;-71
2022/06/01 04:29:04;;;;;;;;;7.00;6.75;;;;;14.83;69.37;100001.06;5036957;28;45499;-70
2022/06/01 04:31:30;;;;;;;;;7.00;7.00;;;;;14.71;69.40;99983.47;5036771;28;46187;-70
2022/06/01 04:33:56;;;;;;;;;9.25;9.00;;;;;14.69;69.13;99980.84;5036826;28;45290;-71
2022/06/01 04:36:22;;;;;;;;;8.50;7.50;;;;;14.66;69.09;99969.44;5036544;28;45524;-72
2022/06/01 04:38:47;;;;;;;;;8.00;8.00;;;;;14.76;69.37;99986.13;5036804;28;45178;-71
2022/06/01 04:41:13;;;;;;;;;8.00;7.00;;;;;14.86;69.41;100001.06;5036389;28;46183;-70
2022/06/01 04:43:39;;;;;;;;;8.00;7.75;;;;;14.80;69.38;99990.50;5038424;28;45522;-71
2022/06/01 04:46:04;;;;;;;;;8.00;8.00;;;;;14.84;69.27;99995.81;5055359;28;45500;-71
2022/06/01 04:48:30;;;;;;;;;7.00;7.00;;;;;14.78;69.50;99985.28;5040342;28;45468;-71
2022/06/01 04:50:58;;;;;;;;;7.00;7.00;;;;;14.85;69.25;100002.81;5039818;28;45476;-71
2022/06/01 04:53:24;;;;;;;;;9.25;7.75;;;;;14.69;69.29;99975.59;5039907;28;45370;-71
2022/06/01 04:55:50;;;;;;;;;8.25;7.50;;;;;14.83;69.14;100007.19;5039751;28;45268;-72
2022/06/01 04:58:15;;;;;;;;;9.00;8.00;;;;;14.86;69.11;100017.72;5039709;28;45552;-71
2022/06/01 05:00:42;;;;;;;;;8.00;6.75;;;;;14.82;69.53;100002.81;5054870;28;45453;-70
2022/06/01 05:03:08;;;;;;;;;8.25;8.00;;;;;14.97;69.53;100023.03;5039663;28;45512;-71
2022/06/01 05:05:36;;;;;;;;;8.25;8.00;;;;;15.04;69.09;100019.56;5039706;28;45262;-71
2022/06/01 05:08:02;;;;;;;;;9.00;8.50;;;;;15.05;68.62;100012.53;5040213;28;45367;-71
2022/06/01 05:10:28;;;;;;;;;8.25;7.75;;;;;15.08;68.30;100008.16;5039310;28;45986;-70
2022/06/01 05:12:54;;;;;;;;;8.25;8.00;;;;;15.28;68.12;100028.41;5039538;28;45505;-70
2022/06/01 05:15:20;;;;;;;;;9.00;9.00;;;;;15.31;68.65;100034.53;5039586;28;45343;-71
2022/06/01 05:17:45;;;;;;;;;9.25;8.00;;;;;15.37;68.37;100027.53;5039481;28;45292;-71
2022/06/01 05:20:13;;;;;;;;;10.75;8.00;;;;;15.43;68.24;100025.78;5039320;28;46279;-71
2022/06/01 05:22:40;;;;;;;;;10.25;10.00;;;;;15.39;68.26;100012.63;5039448;28;45544;-71
2022/06/01 05:25:06;;;;;;;;;10.25;10.00;;;;;15.55;67.91;100030.19;5039338;28;45472;-71
2022/06/01 05:27:32;;;;;;;;;11.00;11.00;;;;;15.62;67.79;100023.19;5039749;28;45536;-71
2022/06/01 05:29:57;;;;;;;;;8.25;7.75;;;;;15.73;67.34;100031.97;5039131;28;45541;-71
2022/06/01 05:32:23;;;;;;;;;9.50;8.25;;;;;15.78;66.96;100016.22;5039166;28;45304;-70
2022/06/01 05:34:49;;;;;;;;;7.50;7.50;;;;;15.94;66.92;100028.50;5039250;28;45320;-71
2022/06/01 05:37:15;;;;;;;;;9.00;8.00;;;;;15.92;66.37;100009.19;5039293;28;45629;-70
2022/06/01 05:39:40;;;;;;;;;9.50;9.00;;;;;16.13;66.25;100029.34;5039150;28;45798;-70
2022/06/01 05:42:06;;;;;;;;;10.00;9.00;;;;;16.08;65.69;100000.38;5040087;28;45250;-70
2022/06/01 05:44:32;;;;;;;;;14.25;12.00;;;;;16.36;65.43;100029.31;5039195;28;46243;-70
2022/06/01 05:47:00;;;;;;;;;9.00;8.00;;;;;16.43;65.39;100017.91;5039022;28;45485;-71
2022/06/01 05:49:26;;;;;;;;;8.50;8.50;;;;;16.56;65.39;100016.09;5038719;28;45517;-71
2022/06/01 05:51:52;;;;;;;;;9.00;9.00;;;;;16.76;64.72;100026.56;5038634;28;45308;-71
2022/06/01 05:54:19;;;;;;;;;8.00;8.00;;;;;16.90;64.55;100030.06;5038250;28;45421;-71
2022/06/01 05:56:45;;;;;;;;;10.00;9.00;;;;;17.07;64.06;100029.13;5039033;28;45456;-71
2022/06/01 05:59:11;;;;;;;;;8.50;8.00;;;;;17.21;63.96;100024.66;5038531;28;45501;-70
2022/06/01 06:01:37;;;;;;;;;8.00;8.00;;;;;18.63;61.53;100028.78;5038520;28;45474;-71
2022/06/01 06:04:04;;;;;;;;;11.67;9.00;;;;;21.74;53.54;100005.66;5038922;28;45465;-71
2022/06/01 06:06:30;;;;;;;;;8.00;8.00;;;;;24.46;47.79;100027.81;5038801;28;45513;-71
2022/06/01 06:09:02;;;;;;;;;7.00;7.00;;;;;26.53;41.25;100006.22;5038375;28;45406;-70
2022/06/01 06:11:34;;;;;;;;;7.00;6.00;;;;;28.42;37.93;100023.13;5038413;28;45464;-71
2022/06/01 06:14:01;;;;;;;;;7.00;6.67;;;;;29.78;35.83;100016.59;5038621;28;45395;-72
2022/06/01 06:16:32;;;;;;;;;6.67;6.67;;;;;31.04;32.43;100022.47;5038454;28;45272;-72
2022/06/01 06:18:58;;;;;;;;;8.67;7.67;;;;;32.15;31.82;100008.94;5038401;28;45367;-72
2022/06/01 06:21:25;;;;;;;;;6.67;6.00;;;;;33.27;29.56;100023.56;5037004;28;45300;-71
2022/06/01 06:23:51;;;;;;;;;7.00;7.00;;;;;34.25;28.14;100020.78;5038490;28;45350;-71
2022/06/01 06:26:17;;;;;;;;;6.00;5.33;;;;;34.52;26.99;100025.06;5038394;28;45371;-71
2022/06/01 06:28:44;;;;;;;;;5.00;5.00;;;;;35.61;26.15;100029.84;5037797;28;45449;-73
2022/06/01 06:31:10;;;;;;;;;7.33;6.67;;;;;36.54;24.50;100020.19;5036656;28;45414;-71
2022/06/01 06:33:35;;;;;;;;;6.00;5.00;;;;;37.40;23.47;100020.72;5038396;28;45512;-71
2022/06/01 06:36:04;;;;;;;;;5.00;5.00;;;;;37.56;23.09;100032.97;5037924;28;45415;-72
2022/06/01 06:38:33;;;;;;;;;5.00;5.00;;;;;36.01;25.29;100041.97;5037791;28;46213;-72
2022/06/01 06:41:00;;;;;;;;;5.00;5.00;;;;;35.49;26.19;100040.88;5037998;28;45254;-73
2022/06/01 06:43:28;;;;;;;;;5.00;4.67;;;;;35.13;26.78;100042.88;5036580;28;45484;-71
2022/06/01 06:46:04;;;;;;;;;5.00;5.00;;;;;35.84;25.38;100046.97;5068002;28;45320;-72
2022/06/01 06:48:29;;;;;;;;;7.33;7.00;;;;;37.30;23.90;100055.25;5069672;28;45433;-72
2022/06/01 06:50:56;;;;;;;;;5.33;5.33;;;;;36.98;24.47;100039.91;5056377;28;45337;-71
2022/06/01 06:53:21;;;;;;;;;5.33;5.33;;;;;35.76;25.30;100049.47;5056223;28;45451;-71
2022/06/01 06:55:48;;;;;;;;;6.00;5.67;;;;;35.38;25.55;100048.06;5056503;28;45412;-71
2022/06/01 06:58:14;;;;;;;;;6.67;5.67;;;;;33.83;27.68;100047.44;5056253;28;45375;-73
2022/06/01 07:00:39;;;;;;;;;6.00;6.00;;;;;34.73;26.80;100059.63;5057741;28;45553;-71
2022/06/01 07:03:05;;;;;;;;;5.67;5.67;;;;;33.92;27.55;100056.72;5058011;28;45511;-71
2022/06/01 07:08:16;;;;;;;;;5.50;5.50;;;;;31.59;31.05;100071.16;5057069;28;45882;-74
2022/06/01 07:10:41;;;;;;;;;8.67;8.00;;;;;33.20;29.07;100071.00;5057643;28;45394;-73
2022/06/01 07:13:07;;;;;;;;;9.00;6.00;;;;;32.18;29.82;100069.06;5057978;28;45498;-70
2022/06/01 07:15:33;;;;;;;;;5.33;4.33;;;;;32.06;30.70;100070.75;5057403;28;45453;-71
2022/06/01 07:17:58;;;;;;;;;5.67;5.00;;;;;32.07;30.31;100077.91;5057439;28;45532;-73
2022/06/01 07:20:24;;;;;;;;;6.67;6.00;;;;;32.27;29.95;100071.16;5057517;28;45422;-73
2022/06/01 07:22:49;;;;;;;;;7.00;7.00;;;;;32.78;29.71;100073.06;5056359;28;45177;-72
2022/06/01 07:25:15;;;;;;;;;9.00;8.00;;;;;35.00;27.31;100081.84;5057731;28;45354;-71
2022/06/01 07:27:41;;;;;;;;;6.67;6.33;;;;;35.84;25.37;100076.00;5057550;28;46102;-71
2022/06/01 07:30:07;;;;;;;;;5.67;4.33;;;;;35.42;25.97;100076.69;5057722;28;45177;-72
2022/06/01 07:32:33;;;;;;;;;5.67;5.67;;;;;35.38;26.50;100080.66;5057267;28;45357;-73
2022/06/01 07:35:02;;;;;;;;;6.00;5.33;;;;;35.83;25.24;100082.44;5057240;28;45516;-72
2022/06/01 07:43:07;;;;;;;;;6.33;6.00;;;;;38.71;22.29;100071.31;5055901;28;45504;-73
2022/06/01 07:45:43;;;;;;;;;4.67;4.67;;;;;39.65;21.26;100077.72;5054333;28;45620;-73
2022/06/01 07:48:09;;;;;;;;;7.00;5.67;;;;;40.68;20.57;100086.41;5056038;28;46312;-71
2022/06/01 07:50:36;;;;;;;;;9.00;7.00;;;;;41.59;19.02;100083.16;5046570;28;45569;-72
2022/06/01 07:53:04;;;;;;;;;7.33;6.00;;;;;42.11;18.93;100082.97;5045629;28;45606;-74
2022/06/01 07:55:29;;;;;;;;;7.33;6.33;;;;;42.93;17.99;100078.50;5051171;28;45470;-74
2022/06/01 07:57:55;;;;;;;;;7.00;5.00;;;;;43.84;17.99;100066.09;5055548;28;45410;-73
2022/06/01 08:00:21;;;;;;;;;5.00;5.00;;;;;44.58;17.09;100065.53;5054407;28;45441;-74
2022/06/01 08:02:47;;;;;;;;;7.00;6.00;;;;;45.16;16.42;100066.59;5051095;28;45824;-74
2022/06/01 08:05:16;;;;;;;;;5.33;5.00;;;;;45.66;15.80;100064.09;5056013;28;45539;-72
2022/06/01 08:07:43;;;;;;;;;4.67;4.67;;;;;46.10;16.03;100067.75;5047801;28;46416;-73
2022/06/01 08:10:10;;;;;;;;;4.67;4.67;;;;;46.53;16.83;100051.16;5035820;28;45794;-73
2022/06/01 08:15:21;;;;;;;;;4.33;4.33;;;;;46.89;14.67;100031.63;5055642;28;45370;-74
2022/06/01 08:17:47;;;;;;;;;4.67;4.67;;;;;47.20;14.79;100046.94;5055701;28;45611;-73
2022/06/01 08:20:16;;;;;;;;;6.33;5.33;;;;;47.22;14.77;100042.91;5058535;28;45390;-73
2022/06/01 08:22:42;;;;;;;;;6.67;6.67;;;;;47.21;15.03;100043.09;5048305;28;45378;-75
2022/06/01 08:25:10;;;;;;;;;7.00;7.00;;;;;47.20;14.89;100033.94;5049922;28;45536;-72
2022/06/01 08:27:36;;;;;;;;;7.33;6.67;;;;;47.08;14.88;100018.97;5048688;28;46098;-74
2022/06/01 08:30:03;;;;;;;;;5.00;5.00;;;;;47.25;15.04;100016.72;5046791;28;45806;-73
2022/06/01 08:32:29;;;;;;;;;8.33;7.33;;;;;47.68;14.88;100022.00;5059149;28;45433;-73
2022/06/01 08:34:54;;;;;;;;;6.00;5.67;;;;;48.16;14.56;100016.31;5058774;28;45393;-74
2022/06/01 08:37:20;;;;;;;;;7.00;7.00;;;;;48.38;14.01;100010.56;5058456;28;45475;-75
2022/06/01 08:39:45;;;;;;;;;7.33;7.33;;;;;48.54;13.61;100012.03;5058382;28;45354;-74
2022/06/01 08:42:16;;;;;;;;;8.67;8.67;;;;;48.70;13.60;100007.97;5059004;28;45417;-73
2022/06/01 08:44:45;;;;;;;;;6.33;6.33;;;;;49.28;13.91;100015.44;5059903;28;45796;-72
2022/06/01 08:47:26;;;;;;;;;7.67;7.00;;;;;49.57;12.83;100011.28;5057309;28;45481;-73
2022/06/01 08:49:56;;;;;;;;;8.00;8.00;;;;;49.68;13.02;99998.59;5047492;28;45763;-74
2022/06/01 08:52:24;;;;;;;;;8.00;8.00;;;;;49.98;12.96;100014.63;5049775;28;45534;-73
2022/06/01 08:54:50;;;;;;;;;8.00;7.00;;;;;49.81;12.61;100001.31;5048438;28;45580;-73
2022/06/01 08:57:24;;;;;;;;;7.67;6.67;;;;;49.76;13.04;99998.34;5048073;28;45882;-73
2022/06/01 09:00:15;;;;;;;;;6.75;6.25;;;;;50.03;12.85;99996.22;5040577;28;45571;-75
2022/06/01 09:02:44;;;;;;;;;8.00;7.00;;;;;50.39;12.43;99982.66;5038241;28;45606;-75
2022/06/01 09:05:16;;;;;;;;;7.00;7.00;;;;;50.43;12.27;99982.00;5038718;28;45474;-75
2022/06/01 09:07:49;;;;;;;;;8.00;7.25;;;;;50.48;12.88;99989.63;5038480;28;45377;-74
2022/06/01 09:10:29;;;;;;;;;8.33;7.00;;;;;50.29;12.33;99975.69;5048549;28;45370;-74
2022/06/01 09:13:06;;;;;;;;;7.25;7.25;;;;;50.42;12.01;99969.16;5045926;28;45475;-76
2022/06/01 09:16:06;;;;;;;;;9.50;9.25;;;;;50.39;12.18;99971.53;5046183;28;45320;-77
2022/06/01 09:18:53;;;;;;;;;6.25;6.25;;;;;49.75;12.95;99966.13;5024224;28;45996;-77
2022/06/01 09:24:10;;;;;;;;;6.67;6.00;;;;;49.43;12.71;99952.22;5042012;28;45426;-76
2022/06/01 09:26:49;;;;;;;;;6.00;5.33;;;;;49.19;13.03;99945.53;5046005;28;45367;-77
2022/06/01 09:29:19;;;;;;;;;6.33;6.00;;;;;49.39;13.10;99939.00;5044436;28;46057;-76
2022/06/01 09:31:48;;;;;;;;;8.67;7.00;;;;;49.68;13.01;99930.03;5042061;28;45672;-78
2022/06/01 09:34:16;;;;;;;;;5.33;5.33;;;;;49.88;12.94;99927.09;5046851;28;45782;-76
2022/06/01 09:37:23;;;;;;;;;7.75;7.00;;;;;50.04;12.85;99941.50;5052113;28;45537;-76
2022/06/01 09:39:53;;;;;;;;;17.75;17.75;;;;;49.74;12.77;99914.44;5057419;28;46197;-77
2022/06/01 09:42:32;;;;;;;;;7.75;7.50;;;;;49.90;13.58;99933.31;5057536;28;45501;-76
2022/06/01 09:45:00;;;;;;;;;8.33;7.00;;;;;50.02;12.80;99921.44;5056698;28;45726;-77
2022/06/01 09:47:39;;;;;;;;;8.00;8.00;;;;;49.99;13.26;99927.47;5046950;28;45396;-77
2022/06/01 09:50:22;;;;;;;;;6.75;6.00;;;;;49.51;12.88;99846.50;5045328;28;46078;-76
2022/06/01 09:52:49;;;;;;;;;5.33;5.33;;;;;49.95;12.93;99925.13;5038196;28;45418;-76
2022/06/01 09:55:20;;;;;;;;;7.00;7.00;;;;;50.02;12.65;99922.28;5040003;28;45525;-77
2022/06/01 09:58:09;;;;;;;;;6.67;6.67;;;;;49.94;12.95;99926.22;5047276;28;45629;-80
2022/06/01 10:06:27;;;;;;;;;7.25;5.75;;;;;49.70;13.11;99900.13;5044512;28;45565;-85
2022/06/01 10:09:12;;;;;;;;;8.50;8.00;;;;;49.77;12.78;99910.38;5044067;28;46078;-79
2022/06/01 10:11:44;;;;;;;;;6.50;6.50;;;;;49.55;13.61;99910.72;5045667;28;46130;-78
2022/06/01 10:14:31;;;;;;;;;7.00;7.00;;;;;49.21;12.83;99853.72;5045692;28;45523;-75
2022/06/01 10:17:21;;;;;;;;;7.00;7.00;;;;;48.97;13.95;99901.44;5047626;28;45521;-77
2022/06/01 10:19:56;;;;;;;;;5.00;5.00;;;;;48.82;13.96;99894.50;5047622;28;45451;-75
2022/06/01 10:22:35;;;;;;;;;6.00;6.00;;;;;48.89;13.58;99881.44;5046733;28;45501;-77
2022/06/01 10:25:08;;;;;;;;;6.75;6.25;;;;;49.10;13.33;99889.44;5050731;28;45423;-74
2022/06/01 10:28:06;;;;;;;;;6.00;6.00;;;;;49.00;13.75;99889.06;5052435;28;45483;-77
2022/06/01 10:30:40;;;;;;;;;8.00;7.25;;;;;48.85;13.54;99894.03;5046217;28;45539;-77
2022/06/01 10:33:14;;;;;;;;;8.00;7.75;;;;;48.59;14.18;99887.53;5044771;28;46656;-77
2022/06/01 10:35:44;;;;;;;;;7.50;7.25;;;;;48.31;14.16;99883.16;5044782;28;45415;-75
2022/06/01 10:38:25;;;;;;;;;7.50;6.50;;;;;48.06;14.23;99862.75;5046693;28;45284;-76
2022/06/01 10:40:53;;;;;;;;;8.75;7.50;;;;;48.07;14.64;99873.56;5045699;28;45356;-75
2022/06/01 10:43:38;;;;;;;;;8.25;8.00;;;;;47.94;15.17;99870.84;5044604;28;45497;-75
2022/06/01 10:46:38;;;;;;;;;8.25;8.00;;;;;47.77;15.31;99873.16;5036041;28;45487;-76
2022/06/01 10:49:16;;;;;;;;;8.25;8.25;;;;;47.55;14.88;99865.09;5046979;28;45385;-78
2022/06/01 10:51:43;;;;;;;;;6.75;6.75;;;;;46.91;15.64;99813.06;5049575;28;45425;-75
2022/06/01 10:54:18;;;;;;;;;7.75;6.00;;;;;46.95;15.49;99859.41;5044646;28;45453;-77
2022/06/01 10:56:44;;;;;;;;;7.67;7.33;;;;;46.41;16.22;99841.75;5047416;28;45517;-76
2022/06/01 10:59:16;;;;;;;;;7.00;6.67;;;;;45.97;16.36;99833.84;5045094;28;45370;-75
2022/06/01 11:02:03;;;;;;;;;7.00;6.33;;;;;45.92;16.66;99839.94;5045368;28;45579;-76
2022/06/01 11:04:44;;;;;;;;;9.25;9.25;;;;;45.70;17.02;99838.31;5047086;28;45360;-74
2022/06/01 11:07:29;;;;;;;;;8.25;8.25;;;;;45.45;17.42;99827.69;5050823;28;45489;-75
2022/06/01 11:10:22;;;;;;;;;14.50;13.25;;;;;43.46;18.89;99827.56;5057127;28;45475;-75
2022/06/01 11:13:19;;;;;;;;;7.33;7.00;;;;;41.19;20.57;99824.41;5057321;28;45292;-74
2022/06/01 11:15:57;;;;;;;;;9.00;9.00;;;;;39.73;22.69;99812.63;5057374;28;45482;-74
2022/06/01 11:18:52;;;;;;;;;7.33;7.00;;;;;38.39;24.76;99815.19;5055736;28;46006;-74
2022/06/01 11:21:52;;;;;;;;;12.00;11.67;;;;;37.46;25.38;99805.97;5057370;28;45346;-74
2022/06/01 11:24:43;;;;;;;;;10.00;9.33;;;;;36.76;26.50;99816.94;5057504;28;45321;-73
2022/06/01 11:27:30;;;;;;;;;10.33;10.33;;;;;35.93;27.44;99816.16;5056863;28;46121;-74
2022/06/01 11:30:08;;;;;;;;;9.33;9.33;;;;;34.85;29.39;99806.28;5057003;28;46315;-74
2022/06/01 11:33:09;;;;;;;;;10.67;10.00;;;;;34.29;30.94;99811.81;5057105;28;45373;-73
2022/06/01 11:35:41;;;;;;;;;11.33;10.33;;;;;34.10;30.54;99799.69;5057655;28;45275;-73
2022/06/01 11:38:18;;;;;;;;;9.33;9.00;;;;;33.76;30.77;99802.38;5057038;28;45405;-73
2022/06/01 11:40:52;;;;;;;;;13.67;12.00;;;;;33.29;32.35;99799.66;5057266;28;45437;-74
2022/06/01 11:43:36;;;;;;;;;12.67;12.00;;;;;33.15;32.60;99790.84;5057225;28;45365;-74
2022/06/01 11:46:34;;;;;;;;;11.33;11.33;;;;;32.63;32.63;99712.66;5056910;28;45275;-75
2022/06/01 11:49:28;;;;;;;;;9.67;9.67;;;;;32.82;32.87;99782.44;5054887;28;46253;-74
2022/06/01 11:51:54;;;;;;;;;13.67;12.00;;;;;32.62;33.31;99767.72;5056378;28;45589;-74
2022/06/01 11:54:33;;;;;;;;;11.00;11.00;;;;;32.60;33.10;99775.06;5056599;28;45365;-74
2022/06/01 11:57:01;;;;;;;;;11.00;11.00;;;;;32.55;34.01;99771.88;5057168;28;45276;-74
2022/06/01 11:59:45;;;;;;;;;12.00;10.00;;;;;32.55;33.45;99766.47;5056596;28;45291;-74
2022/06/01 12:02:18;;;;;;;;;9.67;9.67;;;;;32.58;33.97;99763.50;5056009;28;45512;-73
2022/06/01 12:04:52;;;;;;;;;12.00;11.67;;;;;32.44;33.16;99764.50;5056826;28;45378;-74
2022/06/01 12:07:37;;;;;;;;;11.00;10.33;;;;;32.29;33.63;99760.22;5056642;28;45367;-74
2022/06/01 12:10:26;;;;;;;;;11.00;11.00;;;;;32.30;34.14;99759.25;5056235;28;45298;-74
2022/06/01 12:12:54;;;;;;;;;11.67;11.67;;;;;32.32;33.83;99764.53;5055791;28;45350;-74